createdAt,value
2022-10-05T00:00:22.803Z,3.90
2022-10-05T00:03:11.459Z,2.90
2022-10-05T00:05:39.542Z,3.50
2022-10-05T00:08:21.532Z,4.10
2022-10-05T00:10:49.022Z,3.10
2022-10-05T00:13:20.122Z,2.90
2022-10-05T00:15:48.335Z,4.50
2022-10-05T00:18:21.048Z,4.80
2022-10-05T00:20:49.383Z,2.50
2022-10-05T00:23:21.067Z,2.40
2022-10-05T00:25:48.089Z,3.60
2022-10-05T00:28:21.469Z,3.00
2022-10-05T00:30:48.528Z,2.60
2022-10-05T00:33:15.485Z,3.80
2022-10-05T00:35:42.322Z,3.30
2022-10-05T00:38:09.165Z,2.20
2022-10-05T00:40:45.335Z,2.80
2022-10-05T00:43:21.396Z,4.10
2022-10-05T00:45:56.579Z,4.10
2022-10-05T00:49:00.781Z,4.80
2022-10-05T00:51:44.196Z,2.40
2022-10-05T00:54:20.358Z,2.40
2022-10-05T00:57:02.139Z,1.90
2022-10-05T00:59:41.279Z,1.90
2022-10-05T01:02:37.110Z,4.70
2022-10-05T01:05:41.935Z,2.90
2022-10-05T01:08:17.583Z,2.70
2022-10-05T01:11:25.806Z,2.10
2022-10-05T01:14:28.490Z,3.90
2022-10-05T01:17:22.988Z,3.40
2022-10-05T01:20:20.962Z,3.80
2022-10-05T01:23:09.410Z,5.60
2022-10-05T01:26:21.051Z,4.10
2022-10-05T01:28:57.309Z,3.10
2022-10-05T01:31:30.289Z,2.90
2022-10-05T01:34:19.038Z,4.10
2022-10-05T01:36:51.594Z,4.40
2022-10-05T01:40:03.518Z,4.70
2022-10-05T01:42:52.572Z,4.10
2022-10-05T01:45:37.432Z,3.50
2022-10-05T01:48:19.232Z,5.00
2022-10-05T01:50:51.905Z,2.90
2022-10-05T01:53:36.051Z,3.50
2022-10-05T01:56:05.964Z,5.20
2022-10-05T01:58:32.727Z,3.70
2022-10-05T02:01:06.730Z,3.50
2022-10-05T02:06:17.202Z,5.00
2022-10-05T02:08:53.878Z,7.40
2022-10-05T02:11:21.139Z,3.80
2022-10-05T02:14:01.185Z,3.10
2022-10-05T02:16:43.704Z,5.60
2022-10-05T02:19:20.584Z,3.40
2022-10-05T02:21:54.438Z,4.20
2022-10-05T02:24:26.759Z,3.20
2022-10-05T02:26:56.170Z,2.00
2022-10-05T02:29:27.091Z,3.50
2022-10-05T02:32:00.200Z,7.20
2022-10-05T02:34:36.894Z,4.80
2022-10-05T02:37:36.391Z,3.30
2022-10-05T02:40:19.418Z,3.40
2022-10-05T02:42:59.562Z,3.70
2022-10-05T02:45:35.090Z,3.20
2022-10-05T02:48:27.770Z,3.20
2022-10-05T02:51:10.176Z,4.80
2022-10-05T02:54:02.759Z,2.40
2022-10-05T02:56:52.395Z,2.20
2022-10-05T02:59:30.916Z,5.20
2022-10-05T03:02:03.159Z,1.30
2022-10-05T03:04:49.188Z,2.70
2022-10-05T03:07:41.428Z,4.60
2022-10-05T03:10:53.431Z,2.70
2022-10-05T03:13:29.650Z,2.50
2022-10-05T03:16:05.763Z,4.40
2022-10-05T03:19:12.129Z,4.10
2022-10-05T03:21:58.634Z,3.80
2022-10-05T03:24:43.735Z,2.50
2022-10-05T03:27:25.296Z,2.80
2022-10-05T03:30:09.372Z,4.10
2022-10-05T03:33:07.318Z,4.10
2022-10-05T03:36:07.489Z,2.80
2022-10-05T03:38:41.558Z,3.30
2022-10-05T03:41:26.561Z,3.00
2022-10-05T03:44:15.267Z,2.90
2022-10-05T03:47:09.570Z,6.70
2022-10-05T03:50:05.303Z,3.90
2022-10-05T03:52:46.068Z,4.90
2022-10-05T03:55:18.137Z,6.00
2022-10-05T03:57:48.473Z,6.70
2022-10-05T04:00:25.026Z,7.40
2022-10-05T04:03:16.659Z,6.00
2022-10-05T04:06:09.745Z,6.10
2022-10-05T04:08:51.917Z,6.10
2022-10-05T04:11:28.237Z,10.50
2022-10-05T04:14:22.664Z,6.70
2022-10-05T04:16:59.049Z,12.10
2022-10-05T04:20:09.203Z,8.50
2022-10-05T04:22:48.978Z,11.80
2022-10-05T04:25:30.642Z,9.30
2022-10-05T04:28:13.000Z,8.30
2022-10-05T04:30:45.334Z,10.80
2022-10-05T04:33:13.405Z,12.50
2022-10-05T04:35:49.875Z,11.30
2022-10-05T04:38:59.157Z,10.40
2022-10-05T04:42:07.133Z,9.60
2022-10-05T04:44:40.224Z,5.90
2022-10-05T04:47:13.621Z,8.40
2022-10-05T04:50:12.617Z,8.90
2022-10-05T04:52:57.597Z,5.20
2022-10-05T04:55:49.774Z,7.40
2022-10-05T04:58:40.054Z,6.50
2022-10-05T05:01:24.605Z,5.00
2022-10-05T05:04:21.013Z,5.20
2022-10-05T05:07:07.510Z,6.40
2022-10-05T05:09:47.730Z,6.60
2022-10-05T05:12:47.497Z,6.80
2022-10-05T05:15:38.913Z,9.10
2022-10-05T05:18:30.282Z,7.60
2022-10-05T05:21:18.881Z,8.00
2022-10-05T05:23:57.300Z,7.20
2022-10-05T05:26:40.122Z,11.20
2022-10-05T05:29:35.264Z,9.90
2022-10-05T05:32:28.794Z,6.20
2022-10-05T05:35:01.849Z,7.50
2022-10-05T05:37:45.019Z,10.60
2022-10-05T05:40:49.950Z,9.80
2022-10-05T05:43:48.129Z,5.90
2022-10-05T05:47:02.329Z,11.10
2022-10-05T05:50:09.992Z,7.80
2022-10-05T05:52:54.757Z,8.70
2022-10-05T05:55:39.113Z,7.20
2022-10-05T05:58:25.008Z,8.50
2022-10-05T06:00:56.451Z,9.80
2022-10-05T06:03:36.709Z,10.60
2022-10-05T06:06:13.724Z,6.40
2022-10-05T06:08:52.761Z,7.00
2022-10-05T06:12:02.377Z,7.40
2022-10-05T06:14:52.773Z,7.00
2022-10-05T06:17:38.665Z,7.10
2022-10-05T06:20:21.689Z,6.40
2022-10-05T06:22:50.749Z,6.70
2022-10-05T06:25:28.708Z,6.90
2022-10-05T06:28:08.704Z,5.40
2022-10-05T06:30:48.182Z,6.50
2022-10-05T06:33:37.447Z,7.10
2022-10-05T06:36:42.739Z,6.90
2022-10-05T06:39:41.281Z,6.20
2022-10-05T06:42:13.282Z,6.60
2022-10-05T06:45:53.948Z,9.40
2022-10-05T06:48:57.849Z,10.20
2022-10-05T06:52:02.474Z,5.90
2022-10-05T06:54:55.432Z,12.90
2022-10-05T06:57:49.521Z,8.60
2022-10-05T07:00:24.197Z,10.20
2022-10-05T07:03:09.964Z,7.00
2022-10-05T07:06:11.378Z,5.50
2022-10-05T07:08:59.943Z,7.30
2022-10-05T07:11:50.133Z,9.50
2022-10-05T07:14:25.886Z,11.40
2022-10-05T07:16:56.109Z,13.30
2022-10-05T07:19:44.670Z,15.80
2022-10-05T07:22:36.850Z,14.00
2022-10-05T07:25:20.186Z,9.50
2022-10-05T07:27:58.040Z,9.10
2022-10-05T07:30:24.975Z,6.80
2022-10-05T07:33:20.596Z,12.20
2022-10-05T07:36:27.695Z,6.00
2022-10-05T07:38:57.412Z,8.00
2022-10-05T07:41:27.521Z,5.40
2022-10-05T07:44:18.440Z,6.00
2022-10-05T07:46:56.337Z,11.20
2022-10-05T07:49:41.408Z,10.60
2022-10-05T07:52:21.667Z,3.30
2022-10-05T07:55:11.646Z,4.60
2022-10-05T07:57:53.861Z,4.20
2022-10-05T08:00:23.571Z,4.90
2022-10-05T08:03:10.736Z,17.30
2022-10-05T08:05:43.372Z,6.00
2022-10-05T08:08:10.031Z,5.50
2022-10-05T08:11:02.047Z,5.30
2022-10-05T08:13:32.813Z,6.30
2022-10-05T08:16:12.174Z,5.60
2022-10-05T08:18:48.378Z,8.50
2022-10-05T08:21:20.556Z,8.20
2022-10-05T08:23:59.578Z,4.90
2022-10-05T08:26:35.645Z,6.10
2022-10-05T08:29:34.022Z,7.80
2022-10-05T08:32:12.344Z,15.30
2022-10-05T08:35:00.390Z,5.00
2022-10-05T08:37:32.561Z,3.50
2022-10-05T08:40:32.582Z,1.70
2022-10-05T08:43:17.870Z,4.70
2022-10-05T08:46:17.309Z,2.10
2022-10-05T08:49:21.445Z,3.70
2022-10-05T08:52:06.445Z,4.80
2022-10-05T08:54:43.095Z,3.60
2022-10-05T08:57:47.777Z,5.40
2022-10-05T09:00:21.669Z,4.10
2022-10-05T09:03:13.215Z,2.90
2022-10-05T09:05:58.465Z,10.90
2022-10-05T09:08:53.369Z,4.80
2022-10-05T09:11:32.606Z,4.00
2022-10-05T09:14:18.395Z,5.70
2022-10-05T09:17:15.679Z,4.10
2022-10-05T09:19:52.913Z,3.00
2022-10-05T09:22:38.244Z,3.00
2022-10-05T09:25:16.651Z,2.60
2022-10-05T09:27:53.101Z,3.90
2022-10-05T09:30:40.998Z,2.80
2022-10-05T09:33:26.842Z,6.70
2022-10-05T09:36:02.581Z,8.10
2022-10-05T09:38:57.174Z,3.60
2022-10-05T09:41:53.068Z,2.90
2022-10-05T09:44:32.194Z,3.90
2022-10-05T09:47:21.206Z,3.50
2022-10-05T09:50:09.712Z,5.80
2022-10-05T09:52:58.146Z,4.50
2022-10-05T09:55:46.345Z,5.40
2022-10-05T09:58:32.863Z,10.20
2022-10-05T10:01:39.682Z,4.20
2022-10-05T10:04:25.525Z,3.90
2022-10-05T10:06:55.138Z,3.40
2022-10-05T10:09:41.127Z,4.10
2022-10-05T10:12:19.648Z,3.60
2022-10-05T10:15:15.268Z,3.00
2022-10-05T10:18:19.383Z,3.70
2022-10-05T10:21:21.768Z,8.40
2022-10-05T10:24:15.545Z,22.40
2022-10-05T10:26:56.415Z,6.30
2022-10-05T10:29:51.314Z,11.00
2022-10-05T10:32:40.125Z,30.40
2022-10-05T10:35:22.282Z,6.60
2022-10-05T10:38:02.168Z,5.30
2022-10-05T10:41:06.556Z,2.80
2022-10-05T10:43:57.735Z,3.20
2022-10-05T10:47:02.011Z,3.60
2022-10-05T10:50:06.459Z,2.90
2022-10-05T10:55:38.438Z,3.00
2022-10-05T10:58:17.887Z,2.00
2022-10-05T11:01:15.071Z,7.30
2022-10-05T11:04:19.730Z,10.20
2022-10-05T11:10:00.233Z,2.70
2022-10-05T11:12:29.831Z,3.70
2022-10-05T11:15:12.960Z,2.80
2022-10-05T11:17:55.364Z,3.30
2022-10-05T11:20:25.196Z,4.90
2022-10-05T11:22:55.203Z,2.40
2022-10-05T11:26:01.165Z,5.70
2022-10-05T11:28:39.853Z,3.80
2022-10-05T11:31:35.013Z,2.10
2022-10-05T11:34:28.088Z,2.60
2022-10-05T11:37:38.172Z,1.90
2022-10-05T11:40:43.055Z,5.70
2022-10-05T11:43:58.578Z,2.60
2022-10-05T11:46:53.484Z,2.00
2022-10-05T11:49:35.369Z,5.60
2022-10-05T11:52:25.325Z,2.60
2022-10-05T11:55:23.321Z,3.20
2022-10-05T11:58:07.141Z,3.20
2022-10-05T12:00:46.703Z,3.70
2022-10-05T12:03:27.227Z,4.50
2022-10-05T12:06:39.247Z,4.80
2022-10-05T12:09:20.943Z,4.90
2022-10-05T12:12:18.299Z,3.40
2022-10-05T12:15:17.316Z,4.80
2022-10-05T12:18:08.003Z,3.50
2022-10-05T12:21:32.506Z,3.50
2022-10-05T12:24:13.064Z,2.60
2022-10-05T12:26:44.219Z,3.80
2022-10-05T12:29:37.476Z,3.10
2022-10-05T12:32:08.518Z,5.90
2022-10-05T12:35:01.454Z,5.10
2022-10-05T12:38:04.109Z,2.30
2022-10-05T12:41:05.524Z,4.80
2022-10-05T12:43:32.569Z,6.30
2022-10-05T12:46:36.410Z,3.60
2022-10-05T12:49:41.422Z,3.00
2022-10-05T12:52:27.722Z,3.70
2022-10-05T12:55:10.030Z,3.20
2022-10-05T12:58:11.172Z,4.30
2022-10-05T13:00:51.092Z,7.30
2022-10-05T13:03:25.677Z,5.60
2022-10-05T13:06:05.214Z,3.80
2022-10-05T13:08:59.075Z,1.70
2022-10-05T13:11:40.975Z,3.40
2022-10-05T13:14:18.059Z,2.50
2022-10-05T13:17:14.018Z,2.50
2022-10-05T13:20:03.253Z,5.20
2022-10-05T13:22:43.104Z,5.60
2022-10-05T13:25:13.140Z,4.20
2022-10-05T13:28:25.367Z,4.60
2022-10-05T13:31:04.607Z,3.30
2022-10-05T13:33:31.581Z,8.10
2022-10-05T13:36:09.420Z,5.00
2022-10-05T13:38:59.711Z,3.30
2022-10-05T13:41:29.313Z,2.20
2022-10-05T13:44:25.546Z,3.60
2022-10-05T13:47:02.536Z,3.70
2022-10-05T13:49:42.121Z,2.90
2022-10-05T13:52:09.237Z,2.40
2022-10-05T13:54:50.632Z,3.40
2022-10-05T13:57:23.819Z,3.90
2022-10-05T13:59:58.056Z,2.10
2022-10-05T14:02:39.405Z,13.90
2022-10-05T14:05:18.438Z,6.10
2022-10-05T14:08:16.338Z,4.10
2022-10-05T14:10:46.543Z,8.20
2022-10-05T14:13:26.083Z,7.30
2022-10-05T14:16:16.077Z,7.60
2022-10-05T14:19:14.862Z,12.50
2022-10-05T14:21:54.296Z,5.10
2022-10-05T14:24:43.220Z,4.40
2022-10-05T14:27:22.289Z,6.30
2022-10-05T14:30:23.194Z,4.30
2022-10-05T14:33:03.805Z,5.20
2022-10-05T14:35:52.256Z,9.40
2022-10-05T14:38:29.596Z,7.60
2022-10-05T14:41:16.940Z,4.70
2022-10-05T14:44:03.377Z,5.40
2022-10-05T14:46:32.406Z,4.70
2022-10-05T14:49:21.847Z,6.20
2022-10-05T14:51:50.532Z,5.90
2022-10-05T14:54:40.719Z,6.50
2022-10-05T14:57:24.870Z,7.30
2022-10-05T15:00:11.180Z,8.60
2022-10-05T15:03:07.404Z,8.00
2022-10-05T15:05:52.098Z,10.10
2022-10-05T15:08:41.037Z,6.40
2022-10-05T15:11:19.856Z,5.80
2022-10-05T15:13:48.248Z,5.80
2022-10-05T15:16:24.431Z,5.10
2022-10-05T15:19:07.020Z,5.50
2022-10-05T15:21:49.012Z,3.30
2022-10-05T15:24:23.955Z,4.40
2022-10-05T15:26:53.285Z,3.60
2022-10-05T15:29:49.819Z,3.30
2022-10-05T15:32:34.152Z,4.00
2022-10-05T15:35:35.609Z,3.60
2022-10-05T15:38:20.271Z,4.50
2022-10-05T15:40:54.311Z,3.70
2022-10-05T15:43:22.973Z,4.20
2022-10-05T15:46:05.248Z,9.20
2022-10-05T15:49:05.232Z,12.80
2022-10-05T15:51:54.975Z,14.50
2022-10-05T15:54:49.393Z,14.40
2022-10-05T15:57:44.992Z,21.10
2022-10-05T16:00:19.040Z,25.60
2022-10-05T16:02:55.023Z,21.80
2022-10-05T16:06:02.562Z,24.10
2022-10-05T16:08:50.810Z,28.20
2022-10-05T16:11:57.189Z,30.10
2022-10-05T16:14:48.601Z,28.80
2022-10-05T16:17:40.434Z,44.80
2022-10-05T16:20:23.140Z,42.40
2022-10-05T16:23:18.146Z,33.00
2022-10-05T16:26:13.396Z,24.80
2022-10-05T16:28:59.253Z,29.40
2022-10-05T16:32:07.880Z,33.70
2022-10-05T16:34:56.034Z,32.30
2022-10-05T16:37:44.883Z,29.00
2022-10-05T16:40:51.769Z,41.90
2022-10-05T16:43:52.645Z,37.60
2022-10-05T16:46:36.833Z,39.80
2022-10-05T16:49:41.200Z,45.90
2022-10-05T16:52:15.485Z,35.90
2022-10-05T16:54:53.514Z,31.80
2022-10-05T16:57:32.023Z,38.20
2022-10-05T17:00:15.992Z,39.30
2022-10-05T17:02:52.701Z,51.60
2022-10-05T17:05:43.964Z,66.50
2022-10-05T17:08:39.076Z,140.90
2022-10-05T17:11:29.166Z,78.20
2022-10-05T17:14:16.403Z,87.00
2022-10-05T17:16:43.086Z,114.30
2022-10-05T17:19:21.334Z,104.20
2022-10-05T17:22:00.193Z,71.00
2022-10-05T17:24:35.315Z,71.30
2022-10-05T17:27:27.708Z,95.40
2022-10-05T17:30:15.587Z,98.90
2022-10-05T17:33:04.132Z,84.30
2022-10-05T17:35:39.989Z,79.40
2022-10-05T17:38:41.379Z,74.10
2022-10-05T17:41:30.728Z,59.40
2022-10-05T17:44:06.584Z,43.00
2022-10-05T17:46:38.225Z,33.90
2022-10-05T17:49:11.423Z,27.70
2022-10-05T17:51:56.838Z,23.70
2022-10-05T17:55:10.034Z,19.20
2022-10-05T17:57:39.138Z,18.60
2022-10-05T18:00:24.620Z,18.00
2022-10-05T18:02:56.108Z,15.20
2022-10-05T18:05:30.596Z,16.50
2022-10-05T18:08:12.802Z,17.60
2022-10-05T18:11:10.674Z,18.40
2022-10-05T18:13:49.572Z,16.80
2022-10-05T18:16:54.263Z,21.10
2022-10-05T18:19:22.741Z,21.40
2022-10-05T18:22:03.087Z,17.00
2022-10-05T18:24:40.973Z,16.60
2022-10-05T18:27:30.777Z,11.80
2022-10-05T18:30:22.804Z,22.70
2022-10-05T18:33:24.781Z,19.80
2022-10-05T18:36:09.429Z,20.00
2022-10-05T18:38:48.656Z,22.00
2022-10-05T18:41:26.344Z,17.20
2022-10-05T18:44:14.511Z,16.40
2022-10-05T18:47:01.543Z,11.70
2022-10-05T18:49:51.306Z,12.50
2022-10-05T18:52:43.548Z,11.80
2022-10-05T18:55:32.312Z,17.30
2022-10-05T18:58:17.370Z,12.30
2022-10-05T19:00:59.601Z,11.50
2022-10-05T19:03:52.614Z,10.50
2022-10-05T19:06:23.806Z,13.00
2022-10-05T19:09:00.795Z,13.40
2022-10-05T19:11:34.272Z,13.80
2022-10-05T19:14:15.966Z,10.30
2022-10-05T19:17:19.257Z,13.70
2022-10-05T19:20:06.471Z,18.90
2022-10-05T19:23:01.599Z,14.40
2022-10-05T19:26:02.843Z,8.70
2022-10-05T19:28:36.806Z,7.80
2022-10-05T19:31:41.799Z,7.80
2022-10-05T19:34:37.742Z,8.80
2022-10-05T19:37:14.294Z,9.30
2022-10-05T19:39:54.552Z,6.40
2022-10-05T19:42:40.845Z,9.50
2022-10-05T19:45:24.382Z,7.70
2022-10-05T19:48:03.418Z,8.50
2022-10-05T19:50:33.419Z,11.10
2022-10-05T19:53:16.597Z,10.80
2022-10-05T19:55:46.654Z,11.40
2022-10-05T19:58:21.108Z,12.30
2022-10-05T20:01:04.541Z,12.20
2022-10-05T20:03:36.740Z,7.90
2022-10-05T20:06:06.269Z,6.30
2022-10-05T20:08:42.553Z,9.40
2022-10-05T20:11:16.078Z,9.40
2022-10-05T20:13:46.656Z,7.20
2022-10-05T20:16:37.417Z,8.50
2022-10-05T20:19:43.590Z,9.20
2022-10-05T20:22:25.964Z,9.90
2022-10-05T20:25:06.053Z,8.80
2022-10-05T20:27:38.896Z,13.80
2022-10-05T20:30:07.622Z,14.30
2022-10-05T20:32:34.259Z,8.70
2022-10-05T20:35:01.317Z,6.50
2022-10-05T20:37:28.160Z,8.20
2022-10-05T20:39:55.009Z,13.40
2022-10-05T20:42:23.380Z,11.10
2022-10-05T20:44:55.800Z,13.50
2022-10-05T20:47:24.564Z,20.00
2022-10-05T20:49:52.892Z,35.50
2022-10-05T20:52:20.398Z,37.30
2022-10-05T20:54:47.425Z,18.10
2022-10-05T20:57:14.192Z,9.50
2022-10-05T20:59:41.025Z,18.40
2022-10-05T21:02:07.861Z,47.30
2022-10-05T21:04:40.254Z,12.50
2022-10-05T21:07:08.116Z,14.90
2022-10-05T21:09:37.846Z,11.00
2022-10-05T21:12:04.667Z,11.20
2022-10-05T21:14:33.696Z,10.10
2022-10-05T21:17:01.530Z,12.50
2022-10-05T21:19:29.092Z,11.50
2022-10-05T21:22:02.073Z,11.10
2022-10-05T21:24:28.927Z,8.80
2022-10-05T21:26:57.032Z,11.50
2022-10-05T21:29:23.845Z,12.50
2022-10-05T21:31:50.741Z,15.60
2022-10-05T21:34:17.639Z,25.80
2022-10-05T21:36:44.244Z,21.80
2022-10-05T21:39:11.031Z,16.00
2022-10-05T21:41:37.871Z,33.00
2022-10-05T21:44:06.354Z,13.40
2022-10-05T21:46:35.549Z,14.30
2022-10-05T21:49:03.268Z,8.90
2022-10-05T21:51:30.153Z,11.50
2022-10-05T21:54:06.308Z,10.90
2022-10-05T21:56:36.623Z,11.40
2022-10-05T21:59:07.062Z,15.10
2022-10-05T22:01:35.562Z,11.00
2022-10-05T22:04:04.350Z,11.80
2022-10-05T22:06:32.119Z,7.20
2022-10-05T22:08:59.363Z,9.50
2022-10-05T22:11:27.643Z,11.60
2022-10-05T22:14:01.588Z,11.50
2022-10-05T22:16:35.957Z,13.20
2022-10-05T22:19:05.394Z,11.00
2022-10-05T22:21:37.342Z,10.90
2022-10-05T22:24:04.592Z,7.30
2022-10-05T22:26:32.170Z,9.30
2022-10-05T22:29:01.256Z,5.40
2022-10-05T22:31:28.183Z,7.10
2022-10-05T22:33:55.049Z,7.90
2022-10-05T22:36:22.395Z,10.20
2022-10-05T22:38:49.444Z,6.60
2022-10-05T22:41:17.928Z,7.70
2022-10-05T22:43:49.372Z,5.00
2022-10-05T22:46:16.808Z,5.90
2022-10-05T22:48:44.455Z,6.50
2022-10-05T22:51:12.380Z,9.30
2022-10-05T22:53:39.222Z,13.30
2022-10-05T22:56:09.028Z,15.20
2022-10-05T22:58:36.805Z,15.30
2022-10-05T23:01:05.763Z,13.30
2022-10-05T23:03:33.572Z,16.40
2022-10-05T23:06:03.928Z,12.90
2022-10-05T23:08:32.853Z,16.90
2022-10-05T23:11:12.549Z,16.30
2022-10-05T23:13:40.394Z,20.40
2022-10-05T23:16:16.068Z,19.80
2022-10-05T23:18:43.926Z,16.70
2022-10-05T23:21:11.265Z,15.90
2022-10-05T23:23:40.369Z,13.60
2022-10-05T23:26:09.974Z,14.80
2022-10-05T23:28:46.041Z,11.70
2022-10-05T23:31:16.025Z,14.80
2022-10-05T23:33:43.421Z,17.80
2022-10-05T23:36:22.243Z,14.40
2022-10-05T23:38:50.313Z,15.00
2022-10-05T23:41:19.316Z,12.70
2022-10-05T23:43:46.862Z,13.00
2022-10-05T23:46:14.093Z,11.70
2022-10-05T23:48:40.970Z,12.80
2022-10-05T23:51:10.306Z,10.80
2022-10-05T23:53:37.417Z,12.50
2022-10-05T23:56:04.779Z,11.80
2022-10-05T23:58:32.114Z,14.50
